RYR131 LBBG-LICC
Flight info
| Callsign | RYR131 |
|---|---|
| Flight time | 1h 56m |
| Altitude | 37000 |
| Route | RUEXX T517 NIKTI/N0450F380 DCT KOGIS UM600 DINOB/N0445F370 DCT DODEL DCT PIMOR |
| Aircraft | B38M/M-SDE1FGHILORVWXY/HB1 |
Departure
| Time | 2026-05-04 11:22 |
|---|---|
| Airport | Burgas Airport (LBBG) |
Arrival
| Time | 2026-05-04 13:19 |
|---|---|
| Airport | Catania-Fontanarossa Airport (LICC) |
| Time | Latitude | Longitude | Altitude | Speed | Heading |
|---|---|---|---|---|---|
| 2026-05-04 10:40 | 42.56652 | 27.51638 | 176 ft | 0 kts | 91° |
| 2026-05-04 11:12 | 42.56653 | 27.51615 | 176 ft | 3 kts | 107° |
| 2026-05-04 11:12 | 42.56664 | 27.51594 | 176 ft | 3 kts | 157° |
| 2026-05-04 11:12 | 42.56675 | 27.51591 | 176 ft | 3 kts | 196° |
| 2026-05-04 11:12 | 42.56693 | 27.51607 | 176 ft | 3 kts | 229° |
| 2026-05-04 11:13 | 42.56708 | 27.51630 | 176 ft | 3 kts | 229° |
| 2026-05-04 11:13 | 42.56712 | 27.51637 | 176 ft | 0 kts | 229° |
| 2026-05-04 11:17 | 42.56709 | 27.51631 | 176 ft | 3 kts | 229° |
| 2026-05-04 11:19 | 42.56171 | 27.50816 | 176 ft | 24 kts | 228° |
| 2026-05-04 11:19 | 42.56058 | 27.50644 | 176 ft | 25 kts | 227° |
| 2026-05-04 11:19 | 42.55955 | 27.50490 | 176 ft | 18 kts | 227° |
| 2026-05-04 11:19 | 42.55895 | 27.50396 | 175 ft | 10 kts | 243° |
| 2026-05-04 11:20 | 42.55907 | 27.50323 | 175 ft | 8 kts | 306° |
| 2026-05-04 11:20 | 42.55950 | 27.50260 | 175 ft | 9 kts | 314° |
| 2026-05-04 11:20 | 42.55988 | 27.50209 | 174 ft | 6 kts | 315° |
| 2026-05-04 11:20 | 42.56011 | 27.50203 | 174 ft | 4 kts | 21° |
| 2026-05-04 11:22 | 42.58893 | 27.54055 | 1535 ft | 171 kts | 34° |
| 2026-05-04 11:22 | 42.59944 | 27.54870 | 2079 ft | 187 kts | 20° |
| 2026-05-04 11:23 | 42.61257 | 27.55523 | 2489 ft | 211 kts | 16° |
| 2026-05-04 11:23 | 42.62738 | 27.55761 | 3079 ft | 221 kts | 349° |
| 2026-05-04 11:24 | 42.65077 | 27.42754 | 7654 ft | 276 kts | 283° |
| 2026-05-04 11:25 | 42.65305 | 27.40162 | 8340 ft | 283 kts | 282° |
| 2026-05-04 11:25 | 42.65527 | 27.37437 | 9068 ft | 291 kts | 282° |
| 2026-05-04 11:25 | 42.65741 | 27.34687 | 9832 ft | 295 kts | 282° |
| 2026-05-04 11:26 | 42.65955 | 27.28830 | 10679 ft | 329 kts | 276° |
| 2026-05-04 11:27 | 42.66286 | 27.05741 | 15793 ft | 362 kts | 276° |
| 2026-05-04 11:28 | 42.66331 | 27.02269 | 16585 ft | 364 kts | 276° |
| 2026-05-04 11:28 | 42.66374 | 26.98874 | 17404 ft | 364 kts | 277° |
| 2026-05-04 11:28 | 42.66417 | 26.95432 | 18177 ft | 366 kts | 277° |
| 2026-05-04 11:28 | 42.66169 | 26.91951 | 18812 ft | 378 kts | 260° |
| 2026-05-04 11:29 | 42.65108 | 26.88627 | 19397 ft | 391 kts | 240° |
| 2026-05-04 11:29 | 42.63346 | 26.85764 | 19975 ft | 398 kts | 229° |
| 2026-05-04 11:29 | 42.61461 | 26.82990 | 20530 ft | 402 kts | 232° |
| 2026-05-04 11:29 | 42.60011 | 26.79782 | 21096 ft | 398 kts | 251° |
| 2026-05-04 11:31 | 42.52912 | 26.54329 | 24585 ft | 424 kts | 251° |
| 2026-05-04 11:33 | 42.45482 | 26.27554 | 27514 ft | 443 kts | 249° |
| 2026-05-04 11:33 | 42.44392 | 26.23651 | 27923 ft | 445 kts | 249° |
| 2026-05-04 11:33 | 42.43292 | 26.19716 | 28305 ft | 448 kts | 249° |
| 2026-05-04 11:34 | 42.42185 | 26.15763 | 28686 ft | 451 kts | 248° |
| 2026-05-04 11:34 | 42.41067 | 26.11781 | 29050 ft | 454 kts | 248° |
| 2026-05-04 11:34 | 42.39944 | 26.07784 | 29428 ft | 456 kts | 248° |
| 2026-05-04 11:34 | 42.38812 | 26.03760 | 29770 ft | 459 kts | 248° |
| 2026-05-04 11:35 | 42.37672 | 25.99716 | 30123 ft | 461 kts | 248° |
| 2026-05-04 11:35 | 42.36526 | 25.95657 | 30417 ft | 464 kts | 248° |
| 2026-05-04 11:35 | 42.35374 | 25.91582 | 30780 ft | 464 kts | 248° |
| 2026-05-04 11:35 | 42.34219 | 25.87505 | 31103 ft | 466 kts | 248° |
| 2026-05-04 11:36 | 42.33057 | 25.83410 | 31419 ft | 467 kts | 248° |
| 2026-05-04 11:36 | 42.31892 | 25.79310 | 31750 ft | 468 kts | 248° |
| 2026-05-04 11:36 | 42.30722 | 25.75198 | 32072 ft | 469 kts | 248° |
| 2026-05-04 11:36 | 42.29562 | 25.71131 | 32395 ft | 471 kts | 248° |
| 2026-05-04 11:37 | 42.28368 | 25.66948 | 32707 ft | 472 kts | 248° |
| 2026-05-04 11:37 | 42.27184 | 25.62810 | 33019 ft | 473 kts | 248° |
| 2026-05-04 11:37 | 42.25997 | 25.58669 | 33371 ft | 473 kts | 248° |
| 2026-05-04 11:37 | 42.24812 | 25.54538 | 33836 ft | 471 kts | 247° |
| 2026-05-04 11:38 | 42.23648 | 25.50486 | 34281 ft | 468 kts | 247° |
| 2026-05-04 11:38 | 42.22474 | 25.46406 | 34634 ft | 466 kts | 247° |
| 2026-05-04 11:38 | 42.21299 | 25.42332 | 34920 ft | 466 kts | 247° |
| 2026-05-04 11:38 | 42.20126 | 25.38270 | 35277 ft | 464 kts | 248° |
| 2026-05-04 11:39 | 42.18954 | 25.34218 | 35585 ft | 463 kts | 248° |
| 2026-05-04 11:39 | 42.17781 | 25.30170 | 35842 ft | 464 kts | 248° |
| 2026-05-04 11:40 | 42.10700 | 25.05867 | 37105 ft | 467 kts | 249° |
| 2026-05-04 11:41 | 42.09511 | 25.01804 | 37068 ft | 466 kts | 249° |
| 2026-05-04 11:41 | 42.07142 | 24.93727 | 37071 ft | 464 kts | 249° |
| 2026-05-04 11:42 | 42.04179 | 24.86074 | 37059 ft | 461 kts | 227° |
| 2026-05-04 11:42 | 41.99927 | 24.79567 | 37055 ft | 465 kts | 229° |
| 2026-05-04 11:43 | 41.95643 | 24.73052 | 37074 ft | 465 kts | 228° |
| 2026-05-04 11:43 | 41.91334 | 24.66588 | 37081 ft | 465 kts | 228° |
| 2026-05-04 11:44 | 41.87013 | 24.60127 | 37066 ft | 467 kts | 229° |
| 2026-05-04 11:44 | 41.82662 | 24.53635 | 37078 ft | 468 kts | 228° |
| 2026-05-04 11:45 | 41.78301 | 24.47143 | 37106 ft | 470 kts | 228° |
| 2026-05-04 11:45 | 41.73943 | 24.40670 | 37078 ft | 467 kts | 229° |
| 2026-05-04 11:46 | 41.69574 | 24.34196 | 37081 ft | 466 kts | 229° |
| 2026-05-04 11:46 | 41.65219 | 24.27754 | 37084 ft | 469 kts | 229° |
| 2026-05-04 11:47 | 41.60851 | 24.21308 | 37073 ft | 467 kts | 229° |
| 2026-05-04 11:47 | 41.56476 | 24.14864 | 37085 ft | 466 kts | 229° |
| 2026-05-04 11:48 | 41.52220 | 24.08346 | 37079 ft | 467 kts | 230° |
| 2026-05-04 11:48 | 41.47976 | 24.01800 | 37071 ft | 465 kts | 230° |
| 2026-05-04 11:49 | 41.43757 | 23.95319 | 37083 ft | 466 kts | 230° |
| 2026-05-04 11:49 | 41.39518 | 23.88821 | 37076 ft | 464 kts | 230° |
| 2026-05-04 11:50 | 41.35276 | 23.82333 | 37084 ft | 464 kts | 230° |
| 2026-05-04 11:50 | 41.31031 | 23.75855 | 37083 ft | 464 kts | 230° |
| 2026-05-04 11:51 | 41.26779 | 23.69378 | 37097 ft | 466 kts | 231° |
| 2026-05-04 11:51 | 41.22513 | 23.62896 | 37081 ft | 465 kts | 231° |
| 2026-05-04 11:52 | 41.18246 | 23.56426 | 37097 ft | 466 kts | 231° |
| 2026-05-04 11:52 | 41.13976 | 23.49964 | 37095 ft | 465 kts | 231° |
| 2026-05-04 11:53 | 41.09714 | 23.43528 | 37100 ft | 464 kts | 231° |
| 2026-05-04 11:53 | 41.05444 | 23.37095 | 37107 ft | 465 kts | 231° |
| 2026-05-04 11:55 | 40.88348 | 23.11473 | 37116 ft | 464 kts | 231° |
| 2026-05-04 11:56 | 40.84064 | 23.05086 | 37117 ft | 465 kts | 232° |
| 2026-05-04 11:56 | 40.79775 | 22.98707 | 37118 ft | 464 kts | 232° |
| 2026-05-04 11:57 | 40.75489 | 22.92343 | 37140 ft | 464 kts | 231° |
| 2026-05-04 11:57 | 40.71193 | 22.85981 | 37136 ft | 464 kts | 231° |
| 2026-05-04 11:58 | 40.66899 | 22.79632 | 37140 ft | 464 kts | 232° |
| 2026-05-04 11:58 | 40.63326 | 22.74361 | 37134 ft | 465 kts | 232° |
| 2026-05-04 11:59 | 40.59011 | 22.68007 | 37136 ft | 466 kts | 232° |
| 2026-05-04 11:59 | 40.54692 | 22.61661 | 37134 ft | 465 kts | 232° |
| 2026-05-04 12:00 | 40.50372 | 22.55324 | 37127 ft | 465 kts | 232° |
| 2026-05-04 12:00 | 40.46044 | 22.48992 | 37128 ft | 466 kts | 232° |
| 2026-05-04 12:01 | 40.41716 | 22.42671 | 37115 ft | 466 kts | 232° |
| 2026-05-04 12:02 | 40.26553 | 22.20630 | 37155 ft | 465 kts | 232° |
| 2026-05-04 12:03 | 40.22221 | 22.14361 | 37116 ft | 463 kts | 233° |
| 2026-05-04 12:03 | 40.17921 | 22.08148 | 37149 ft | 464 kts | 233° |
| 2026-05-04 12:04 | 40.13583 | 22.01893 | 37120 ft | 463 kts | 234° |
| 2026-05-04 12:04 | 40.11734 | 21.98526 | 37128 ft | 450 kts | 250° |
| 2026-05-04 12:04 | 40.10471 | 21.94816 | 37159 ft | 449 kts | 250° |
| 2026-05-04 12:05 | 40.07803 | 21.87424 | 37149 ft | 450 kts | 251° |
| 2026-05-04 12:05 | 40.05153 | 21.80023 | 37113 ft | 449 kts | 251° |
| 2026-05-04 12:06 | 40.02511 | 21.72651 | 37121 ft | 449 kts | 251° |
| 2026-05-04 12:06 | 39.99867 | 21.65288 | 37114 ft | 448 kts | 251° |
| 2026-05-04 12:07 | 39.97214 | 21.57922 | 37122 ft | 449 kts | 251° |
| 2026-05-04 12:07 | 39.94591 | 21.50544 | 37116 ft | 448 kts | 251° |
| 2026-05-04 12:08 | 39.91973 | 21.43179 | 37118 ft | 447 kts | 251° |
| 2026-05-04 12:08 | 39.89355 | 21.35836 | 37123 ft | 447 kts | 251° |
| 2026-05-04 12:09 | 39.86730 | 21.28493 | 37118 ft | 447 kts | 251° |
| 2026-05-04 12:09 | 39.84101 | 21.21158 | 37119 ft | 447 kts | 251° |
| 2026-05-04 12:10 | 39.81469 | 21.13832 | 37087 ft | 447 kts | 251° |
| 2026-05-04 12:10 | 39.78840 | 21.06531 | 37108 ft | 446 kts | 251° |
| 2026-05-04 12:11 | 39.76208 | 20.99243 | 37116 ft | 446 kts | 251° |
| 2026-05-04 12:11 | 39.73564 | 20.91940 | 37130 ft | 446 kts | 251° |
| 2026-05-04 12:12 | 39.70925 | 20.84664 | 37121 ft | 445 kts | 251° |
| 2026-05-04 12:12 | 39.68424 | 20.77332 | 37113 ft | 444 kts | 253° |
| 2026-05-04 12:14 | 39.58461 | 20.48141 | 37115 ft | 442 kts | 252° |
| 2026-05-04 12:15 | 39.55967 | 20.40877 | 37105 ft | 439 kts | 253° |
| 2026-05-04 12:15 | 39.53485 | 20.33643 | 37105 ft | 439 kts | 253° |
| 2026-05-04 12:16 | 39.50999 | 20.26414 | 37122 ft | 439 kts | 253° |
| 2026-05-04 12:16 | 39.48516 | 20.19214 | 37116 ft | 439 kts | 253° |
| 2026-05-04 12:17 | 39.46024 | 20.12005 | 37103 ft | 438 kts | 252° |
| 2026-05-04 12:17 | 39.42936 | 20.05187 | 37131 ft | 449 kts | 234° |
| 2026-05-04 12:18 | 39.38923 | 19.99045 | 37097 ft | 450 kts | 237° |
| 2026-05-04 12:18 | 39.34862 | 19.92872 | 37123 ft | 451 kts | 236° |
| 2026-05-04 12:19 | 39.30788 | 19.86726 | 37124 ft | 450 kts | 236° |
| 2026-05-04 12:19 | 39.26711 | 19.80589 | 37130 ft | 450 kts | 236° |
| 2026-05-04 12:20 | 39.22637 | 19.74469 | 37125 ft | 448 kts | 236° |
| 2026-05-04 12:20 | 39.18570 | 19.68373 | 37127 ft | 448 kts | 236° |
| 2026-05-04 12:21 | 39.14511 | 19.62299 | 37129 ft | 447 kts | 236° |
| 2026-05-04 12:21 | 39.10450 | 19.56234 | 37131 ft | 447 kts | 236° |
| 2026-05-04 12:22 | 39.06385 | 19.50175 | 37132 ft | 447 kts | 236° |
| 2026-05-04 12:22 | 39.02315 | 19.44121 | 37123 ft | 447 kts | 236° |
| 2026-05-04 12:23 | 38.98266 | 19.38108 | 37130 ft | 445 kts | 236° |
| 2026-05-04 12:23 | 38.94208 | 19.32096 | 37134 ft | 445 kts | 236° |
| 2026-05-04 12:24 | 38.90147 | 19.26090 | 37140 ft | 445 kts | 235° |
| 2026-05-04 12:24 | 38.86107 | 19.20126 | 37130 ft | 445 kts | 236° |
| 2026-05-04 12:25 | 38.82047 | 19.14144 | 37141 ft | 444 kts | 236° |
| 2026-05-04 12:25 | 38.77997 | 19.08188 | 37144 ft | 442 kts | 235° |
| 2026-05-04 12:26 | 38.73961 | 19.02262 | 37142 ft | 441 kts | 235° |
| 2026-05-04 12:26 | 38.72153 | 18.99145 | 37109 ft | 429 kts | 249° |
| 2026-05-04 12:26 | 38.70868 | 18.95728 | 37158 ft | 428 kts | 249° |
| 2026-05-04 12:27 | 38.68190 | 18.88913 | 37149 ft | 428 kts | 250° |
| 2026-05-04 12:27 | 38.65554 | 18.82077 | 37144 ft | 428 kts | 250° |
| 2026-05-04 12:28 | 38.62926 | 18.75247 | 37129 ft | 428 kts | 250° |
| 2026-05-04 12:28 | 38.60300 | 18.68434 | 37144 ft | 427 kts | 250° |
| 2026-05-04 12:29 | 38.57670 | 18.61623 | 37143 ft | 427 kts | 250° |
| 2026-05-04 12:29 | 38.55036 | 18.54819 | 37143 ft | 427 kts | 250° |
| 2026-05-04 12:30 | 38.52398 | 18.48022 | 37139 ft | 427 kts | 250° |
| 2026-05-04 12:30 | 38.49759 | 18.41236 | 37125 ft | 427 kts | 249° |
| 2026-05-04 12:31 | 38.47117 | 18.34454 | 37147 ft | 427 kts | 249° |
| 2026-05-04 12:31 | 38.44470 | 18.27681 | 37146 ft | 426 kts | 249° |
| 2026-05-04 12:32 | 38.43147 | 18.24301 | 37042 ft | 424 kts | 249° |
| 2026-05-04 12:32 | 38.40553 | 18.17681 | 36528 ft | 413 kts | 249° |
| 2026-05-04 12:32 | 38.39273 | 18.14419 | 36279 ft | 411 kts | 249° |
| 2026-05-04 12:33 | 38.37997 | 18.11173 | 36017 ft | 409 kts | 249° |
| 2026-05-04 12:33 | 38.36732 | 18.07955 | 35779 ft | 406 kts | 249° |
| 2026-05-04 12:33 | 38.35466 | 18.04742 | 35536 ft | 404 kts | 249° |
| 2026-05-04 12:33 | 38.34209 | 18.01551 | 35303 ft | 402 kts | 249° |
| 2026-05-04 12:34 | 38.32955 | 17.98372 | 35064 ft | 401 kts | 249° |
| 2026-05-04 12:34 | 38.31706 | 17.95211 | 34831 ft | 399 kts | 249° |
| 2026-05-04 12:34 | 38.30462 | 17.92064 | 34601 ft | 397 kts | 249° |
| 2026-05-04 12:34 | 38.29223 | 17.88934 | 34373 ft | 395 kts | 249° |
| 2026-05-04 12:35 | 38.27988 | 17.85815 | 34145 ft | 394 kts | 249° |
| 2026-05-04 12:35 | 38.26759 | 17.82716 | 33880 ft | 392 kts | 249° |
| 2026-05-04 12:35 | 38.25533 | 17.79627 | 33627 ft | 390 kts | 249° |
| 2026-05-04 12:35 | 38.24326 | 17.76590 | 33372 ft | 389 kts | 249° |
| 2026-05-04 12:36 | 38.23108 | 17.73527 | 33096 ft | 387 kts | 248° |
| 2026-05-04 12:36 | 38.21892 | 17.70474 | 32829 ft | 386 kts | 248° |
| 2026-05-04 12:36 | 38.20680 | 17.67432 | 32592 ft | 385 kts | 248° |
| 2026-05-04 12:36 | 38.19469 | 17.64396 | 32336 ft | 384 kts | 248° |
| 2026-05-04 12:37 | 38.18261 | 17.61371 | 32091 ft | 383 kts | 248° |
| 2026-05-04 12:37 | 38.17056 | 17.58356 | 31846 ft | 382 kts | 248° |
| 2026-05-04 12:37 | 38.15854 | 17.55351 | 31605 ft | 381 kts | 248° |
| 2026-05-04 12:37 | 38.14656 | 17.52359 | 31362 ft | 380 kts | 248° |
| 2026-05-04 12:38 | 38.13463 | 17.49383 | 31126 ft | 378 kts | 248° |
| 2026-05-04 12:38 | 38.12269 | 17.46409 | 30896 ft | 377 kts | 248° |
| 2026-05-04 12:38 | 38.11079 | 17.43446 | 30654 ft | 376 kts | 248° |
| 2026-05-04 12:38 | 38.09893 | 17.40494 | 30425 ft | 375 kts | 249° |
| 2026-05-04 12:39 | 38.08707 | 17.37547 | 30169 ft | 374 kts | 249° |
| 2026-05-04 12:39 | 38.07525 | 17.34612 | 29896 ft | 373 kts | 249° |
| 2026-05-04 12:39 | 38.06347 | 17.31689 | 29629 ft | 371 kts | 249° |
| 2026-05-04 12:39 | 38.05172 | 17.28780 | 29356 ft | 370 kts | 249° |
| 2026-05-04 12:40 | 38.04003 | 17.25883 | 29086 ft | 368 kts | 249° |
| 2026-05-04 12:40 | 38.02837 | 17.23000 | 28823 ft | 367 kts | 249° |
| 2026-05-04 12:40 | 38.01675 | 17.20128 | 28563 ft | 365 kts | 249° |
| 2026-05-04 12:40 | 38.00518 | 17.17272 | 28306 ft | 364 kts | 249° |
| 2026-05-04 12:41 | 37.99365 | 17.14427 | 28047 ft | 362 kts | 249° |
| 2026-05-04 12:41 | 37.98215 | 17.11591 | 27802 ft | 361 kts | 249° |
| 2026-05-04 12:41 | 37.97069 | 17.08771 | 27558 ft | 359 kts | 249° |
| 2026-05-04 12:41 | 37.95927 | 17.05961 | 27300 ft | 358 kts | 249° |
| 2026-05-04 12:42 | 37.94789 | 17.03164 | 27035 ft | 356 kts | 249° |
| 2026-05-04 12:42 | 37.93656 | 17.00383 | 26786 ft | 354 kts | 249° |
| 2026-05-04 12:42 | 37.92530 | 16.97618 | 26538 ft | 353 kts | 249° |
| 2026-05-04 12:42 | 37.91407 | 16.94865 | 26310 ft | 351 kts | 249° |
| 2026-05-04 12:43 | 37.90287 | 16.92122 | 26076 ft | 350 kts | 249° |
| 2026-05-04 12:43 | 37.89171 | 16.89391 | 25839 ft | 349 kts | 249° |
| 2026-05-04 12:43 | 37.88059 | 16.86673 | 25599 ft | 347 kts | 249° |
| 2026-05-04 12:43 | 37.86951 | 16.83967 | 25371 ft | 345 kts | 249° |
| 2026-05-04 12:44 | 37.85848 | 16.81275 | 25140 ft | 344 kts | 249° |
| 2026-05-04 12:44 | 37.84748 | 16.78591 | 24909 ft | 343 kts | 249° |
| 2026-05-04 12:44 | 37.83652 | 16.75919 | 24693 ft | 342 kts | 249° |
| 2026-05-04 12:44 | 37.82558 | 16.73257 | 24466 ft | 340 kts | 249° |
| 2026-05-04 12:45 | 37.81468 | 16.70606 | 24246 ft | 339 kts | 249° |
| 2026-05-04 12:45 | 37.80382 | 16.67967 | 24014 ft | 338 kts | 248° |
| 2026-05-04 12:45 | 37.79299 | 16.65335 | 23801 ft | 336 kts | 248° |
| 2026-05-04 12:45 | 37.78235 | 16.62753 | 23554 ft | 335 kts | 248° |
| 2026-05-04 12:46 | 37.77159 | 16.60146 | 23296 ft | 334 kts | 248° |
| 2026-05-04 12:46 | 37.76085 | 16.57543 | 23038 ft | 333 kts | 248° |
| 2026-05-04 12:46 | 37.75014 | 16.54952 | 22792 ft | 332 kts | 248° |
| 2026-05-04 12:46 | 37.73946 | 16.52368 | 22537 ft | 331 kts | 248° |
| 2026-05-04 12:47 | 37.72882 | 16.49796 | 22283 ft | 330 kts | 247° |
| 2026-05-04 12:47 | 37.71820 | 16.47232 | 22028 ft | 329 kts | 247° |
| 2026-05-04 12:47 | 37.70761 | 16.44677 | 21780 ft | 328 kts | 247° |
| 2026-05-04 12:47 | 37.69706 | 16.42131 | 21536 ft | 327 kts | 247° |
| 2026-05-04 12:48 | 37.68993 | 16.40413 | 21372 ft | 326 kts | 247° |
| 2026-05-04 12:48 | 37.67956 | 16.37914 | 21140 ft | 325 kts | 247° |
| 2026-05-04 12:48 | 37.66907 | 16.35387 | 20901 ft | 324 kts | 247° |
| 2026-05-04 12:48 | 37.65860 | 16.32869 | 20651 ft | 324 kts | 246° |
| 2026-05-04 12:49 | 37.64815 | 16.30358 | 20419 ft | 323 kts | 246° |
| 2026-05-04 12:49 | 37.63773 | 16.27856 | 20193 ft | 321 kts | 246° |
| 2026-05-04 12:49 | 37.62736 | 16.25365 | 19952 ft | 320 kts | 246° |
| 2026-05-04 12:49 | 37.61699 | 16.22880 | 19722 ft | 320 kts | 246° |
| 2026-05-04 12:50 | 37.60674 | 16.20400 | 19440 ft | 318 kts | 248° |
| 2026-05-04 12:50 | 37.60098 | 16.17742 | 18997 ft | 313 kts | 267° |
| 2026-05-04 12:50 | 37.59884 | 16.15018 | 18637 ft | 312 kts | 266° |
| 2026-05-04 12:50 | 37.59651 | 16.12333 | 18266 ft | 311 kts | 266° |
| 2026-05-04 12:51 | 37.59422 | 16.09639 | 17920 ft | 308 kts | 266° |
| 2026-05-04 12:51 | 37.59196 | 16.06964 | 17588 ft | 305 kts | 266° |
| 2026-05-04 12:51 | 37.58972 | 16.04314 | 17267 ft | 302 kts | 266° |
| 2026-05-04 12:51 | 37.58752 | 16.01723 | 16960 ft | 299 kts | 266° |
| 2026-05-04 12:52 | 37.58532 | 15.99131 | 16647 ft | 296 kts | 266° |
| 2026-05-04 12:52 | 37.58314 | 15.96566 | 16342 ft | 293 kts | 266° |
| 2026-05-04 12:52 | 37.58097 | 15.94026 | 16040 ft | 290 kts | 266° |
| 2026-05-04 12:52 | 37.57881 | 15.91509 | 15743 ft | 289 kts | 265° |
| 2026-05-04 12:53 | 37.57663 | 15.88967 | 15439 ft | 294 kts | 265° |
| 2026-05-04 12:53 | 37.57448 | 15.86385 | 15176 ft | 297 kts | 268° |
| 2026-05-04 12:53 | 37.57462 | 15.83784 | 15026 ft | 297 kts | 273° |
| 2026-05-04 12:53 | 37.57513 | 15.81178 | 14882 ft | 297 kts | 272° |
| 2026-05-04 12:54 | 37.57551 | 15.78580 | 14742 ft | 296 kts | 272° |
| 2026-05-04 12:54 | 37.57581 | 15.75987 | 14591 ft | 296 kts | 272° |
| 2026-05-04 12:54 | 37.57604 | 15.73395 | 14442 ft | 296 kts | 272° |
| 2026-05-04 12:54 | 37.57624 | 15.70802 | 14294 ft | 295 kts | 272° |
| 2026-05-04 12:55 | 37.57641 | 15.68220 | 14150 ft | 294 kts | 272° |
| 2026-05-04 12:55 | 37.57657 | 15.65643 | 14000 ft | 294 kts | 272° |
| 2026-05-04 12:55 | 37.57673 | 15.63076 | 13840 ft | 292 kts | 271° |
| 2026-05-04 12:55 | 37.57688 | 15.60522 | 13682 ft | 291 kts | 271° |
| 2026-05-04 12:56 | 37.57703 | 15.57976 | 13534 ft | 290 kts | 271° |
| 2026-05-04 12:56 | 37.57717 | 15.55467 | 13390 ft | 290 kts | 271° |
| 2026-05-04 12:56 | 37.57731 | 15.52894 | 13243 ft | 290 kts | 271° |
| 2026-05-04 12:56 | 37.57743 | 15.50392 | 13100 ft | 289 kts | 271° |
| 2026-05-04 12:57 | 37.57755 | 15.47860 | 12951 ft | 289 kts | 271° |
| 2026-05-04 12:57 | 37.57767 | 15.45328 | 12808 ft | 289 kts | 271° |
| 2026-05-04 12:57 | 37.57778 | 15.42799 | 12662 ft | 288 kts | 271° |
| 2026-05-04 12:57 | 37.57762 | 15.40275 | 12513 ft | 288 kts | 270° |
| 2026-05-04 12:58 | 37.57728 | 15.37752 | 12355 ft | 287 kts | 270° |
| 2026-05-04 12:58 | 37.57696 | 15.35239 | 12218 ft | 287 kts | 270° |
| 2026-05-04 12:58 | 37.57664 | 15.32723 | 12076 ft | 287 kts | 270° |
| 2026-05-04 12:58 | 37.57633 | 15.30214 | 11937 ft | 286 kts | 270° |
| 2026-05-04 12:59 | 37.57601 | 15.27705 | 11781 ft | 286 kts | 270° |
| 2026-05-04 12:59 | 37.57569 | 15.25207 | 11646 ft | 285 kts | 270° |
| 2026-05-04 12:59 | 37.57536 | 15.22710 | 11512 ft | 284 kts | 270° |
| 2026-05-04 12:59 | 37.57503 | 15.20253 | 11371 ft | 277 kts | 270° |
| 2026-05-04 13:00 | 37.57471 | 15.17865 | 11225 ft | 268 kts | 270° |
| 2026-05-04 13:00 | 37.57439 | 15.15539 | 11106 ft | 264 kts | 270° |
| 2026-05-04 13:00 | 37.57278 | 15.13230 | 10961 ft | 265 kts | 264° |
| 2026-05-04 13:00 | 37.57069 | 15.10925 | 10822 ft | 265 kts | 265° |
| 2026-05-04 13:01 | 37.56869 | 15.08628 | 10711 ft | 261 kts | 265° |
| 2026-05-04 13:01 | 37.56680 | 15.06404 | 10644 ft | 249 kts | 265° |
| 2026-05-04 13:01 | 37.56500 | 15.04267 | 10586 ft | 244 kts | 265° |
| 2026-05-04 13:01 | 37.56320 | 15.02088 | 10569 ft | 256 kts | 265° |
| 2026-05-04 13:02 | 37.56133 | 14.99835 | 10496 ft | 262 kts | 265° |
| 2026-05-04 13:02 | 37.55941 | 14.97541 | 10445 ft | 263 kts | 265° |
| 2026-05-04 13:02 | 37.55748 | 14.95242 | 10399 ft | 264 kts | 265° |
| 2026-05-04 13:02 | 37.55556 | 14.92942 | 10351 ft | 264 kts | 265° |
| 2026-05-04 13:03 | 37.55364 | 14.90644 | 10298 ft | 264 kts | 264° |
| 2026-05-04 13:03 | 37.55171 | 14.88342 | 10246 ft | 265 kts | 265° |
| 2026-05-04 13:03 | 37.54978 | 14.86045 | 10210 ft | 262 kts | 264° |
| 2026-05-04 13:03 | 37.54784 | 14.83753 | 10110 ft | 264 kts | 264° |
| 2026-05-04 13:04 | 37.54590 | 14.81457 | 9919 ft | 262 kts | 265° |
| 2026-05-04 13:04 | 37.54399 | 14.79205 | 9770 ft | 255 kts | 265° |
| 2026-05-04 13:04 | 37.54214 | 14.77023 | 9628 ft | 246 kts | 264° |
| 2026-05-04 13:04 | 37.54033 | 14.74917 | 9469 ft | 239 kts | 264° |
| 2026-05-04 13:05 | 37.53853 | 14.72849 | 9187 ft | 237 kts | 264° |
| 2026-05-04 13:05 | 37.53674 | 14.70787 | 8904 ft | 236 kts | 264° |
| 2026-05-04 13:05 | 37.53496 | 14.68741 | 8620 ft | 235 kts | 264° |
| 2026-05-04 13:05 | 37.53317 | 14.66706 | 8346 ft | 233 kts | 264° |
| 2026-05-04 13:06 | 37.53140 | 14.64689 | 8123 ft | 230 kts | 264° |
| 2026-05-04 13:06 | 37.52963 | 14.62670 | 7998 ft | 234 kts | 264° |
| 2026-05-04 13:06 | 37.52783 | 14.60631 | 7891 ft | 234 kts | 264° |
| 2026-05-04 13:06 | 37.52604 | 14.58595 | 7777 ft | 233 kts | 264° |
| 2026-05-04 13:07 | 37.52425 | 14.56564 | 7623 ft | 234 kts | 264° |
| 2026-05-04 13:07 | 37.52247 | 14.54555 | 7432 ft | 234 kts | 264° |
| 2026-05-04 13:07 | 37.52066 | 14.52518 | 7251 ft | 234 kts | 264° |
| 2026-05-04 13:07 | 37.51886 | 14.50484 | 7091 ft | 233 kts | 264° |
| 2026-05-04 13:08 | 37.51706 | 14.48457 | 6969 ft | 233 kts | 263° |
| 2026-05-04 13:08 | 37.51257 | 14.46518 | 6834 ft | 232 kts | 237° |
| 2026-05-04 13:08 | 37.50102 | 14.45142 | 6692 ft | 231 kts | 207° |
| 2026-05-04 13:08 | 37.48557 | 14.44631 | 6592 ft | 232 kts | 181° |
| 2026-05-04 13:09 | 37.46935 | 14.44756 | 6499 ft | 235 kts | 175° |
| 2026-05-04 13:09 | 37.45305 | 14.44932 | 6394 ft | 235 kts | 175° |
| 2026-05-04 13:09 | 37.43714 | 14.45332 | 6244 ft | 234 kts | 154° |
| 2026-05-04 13:09 | 37.42483 | 14.46615 | 6074 ft | 232 kts | 123° |
| 2026-05-04 13:10 | 37.41914 | 14.48487 | 5953 ft | 231 kts | 95° |
| 2026-05-04 13:10 | 37.41948 | 14.50505 | 5854 ft | 232 kts | 85° |
| 2026-05-04 13:10 | 37.42081 | 14.52534 | 5748 ft | 233 kts | 84° |
| 2026-05-04 13:10 | 37.42231 | 14.54561 | 5630 ft | 233 kts | 84° |
| 2026-05-04 13:11 | 37.42391 | 14.56588 | 5503 ft | 232 kts | 84° |
| 2026-05-04 13:11 | 37.42557 | 14.58607 | 5362 ft | 232 kts | 84° |
| 2026-05-04 13:11 | 37.42727 | 14.60619 | 5231 ft | 231 kts | 83° |
| 2026-05-04 13:11 | 37.42900 | 14.62631 | 5119 ft | 232 kts | 84° |
| 2026-05-04 13:12 | 37.43076 | 14.64641 | 5018 ft | 231 kts | 84° |
| 2026-05-04 13:12 | 37.43253 | 14.66642 | 4930 ft | 228 kts | 83° |
| 2026-05-04 13:12 | 37.43445 | 14.68587 | 4817 ft | 221 kts | 83° |
| 2026-05-04 13:12 | 37.43623 | 14.70479 | 4651 ft | 213 kts | 83° |
| 2026-05-04 13:13 | 37.43785 | 14.72285 | 4493 ft | 203 kts | 84° |
| 2026-05-04 13:13 | 37.43936 | 14.74022 | 4306 ft | 196 kts | 84° |
| 2026-05-04 13:13 | 37.44079 | 14.75689 | 4151 ft | 188 kts | 85° |
| 2026-05-04 13:13 | 37.44214 | 14.77316 | 3999 ft | 187 kts | 85° |
| 2026-05-04 13:14 | 37.44348 | 14.78944 | 3946 ft | 187 kts | 85° |
| 2026-05-04 13:14 | 37.44488 | 14.80577 | 3799 ft | 188 kts | 85° |
| 2026-05-04 13:14 | 37.44630 | 14.82217 | 3551 ft | 188 kts | 86° |
| 2026-05-04 13:14 | 37.44770 | 14.83855 | 3350 ft | 189 kts | 85° |
| 2026-05-04 13:15 | 37.44908 | 14.85514 | 3126 ft | 191 kts | 85° |
| 2026-05-04 13:15 | 37.45052 | 14.87158 | 2885 ft | 181 kts | 83° |
| 2026-05-04 13:15 | 37.45188 | 14.88678 | 2653 ft | 171 kts | 84° |
| 2026-05-04 13:15 | 37.45304 | 14.90125 | 2427 ft | 163 kts | 85° |
| 2026-05-04 13:16 | 37.45416 | 14.91551 | 2183 ft | 164 kts | 88° |
| 2026-05-04 13:16 | 37.45526 | 14.92990 | 2049 ft | 166 kts | 86° |
| 2026-05-04 13:16 | 37.45648 | 14.94422 | 1793 ft | 161 kts | 84° |
| 2026-05-04 13:16 | 37.45771 | 14.95823 | 1522 ft | 161 kts | 84° |
| 2026-05-04 13:17 | 37.45883 | 14.97204 | 1357 ft | 159 kts | 86° |
| 2026-05-04 13:17 | 37.45998 | 14.98588 | 1177 ft | 159 kts | 85° |
| 2026-05-04 13:17 | 37.46113 | 14.99942 | 943 ft | 156 kts | 86° |
| 2026-05-04 13:17 | 37.46226 | 15.01270 | 746 ft | 151 kts | 85° |
| 2026-05-04 13:18 | 37.46337 | 15.02587 | 571 ft | 148 kts | 86° |
| 2026-05-04 13:18 | 37.46446 | 15.03841 | 321 ft | 143 kts | 86° |
| 2026-05-04 13:18 | 37.46551 | 15.05050 | 118 ft | 137 kts | 87° |
| 2026-05-04 13:18 | 37.46654 | 15.06211 | 39 ft | 124 kts | 86° |
| 2026-05-04 13:19 | 37.46714 | 15.07070 | 38 ft | 65 kts | 84° |
| 2026-05-04 13:19 | 37.46751 | 15.07482 | 37 ft | 33 kts | 79° |
| 2026-05-04 13:19 | 37.46825 | 15.07717 | 39 ft | 16 kts | 54° |
| 2026-05-04 13:19 | 37.46871 | 15.07794 | 36 ft | 7 kts | 42° |
| 2026-05-04 13:20 | 37.46927 | 15.07787 | 35 ft | 10 kts | 311° |
| 2026-05-04 13:20 | 37.46933 | 15.07699 | 35 ft | 12 kts | 264° |
| 2026-05-04 13:20 | 37.46923 | 15.07587 | 35 ft | 14 kts | 264° |
| 2026-05-04 13:20 | 37.46912 | 15.07453 | 35 ft | 17 kts | 264° |
| 2026-05-04 13:21 | 37.46899 | 15.07296 | 35 ft | 19 kts | 264° |
| 2026-05-04 13:21 | 37.46885 | 15.07135 | 35 ft | 14 kts | 264° |
| 2026-05-04 13:21 | 37.46875 | 15.07014 | 34 ft | 14 kts | 264° |
| 2026-05-04 13:21 | 37.46864 | 15.06883 | 34 ft | 16 kts | 264° |
| 2026-05-04 13:22 | 37.46857 | 15.06794 | 34 ft | 6 kts | 263° |
| 2026-05-04 13:22 | 37.46863 | 15.06775 | 34 ft | 2 kts | 329° |
| 2026-05-04 13:22 | 37.46888 | 15.06768 | 34 ft | 5 kts | 352° |
| 2026-05-04 13:22 | 37.46912 | 15.06765 | 34 ft | 3 kts | 354° |
| 2026-05-04 13:23 | 37.46932 | 15.06762 | 34 ft | 2 kts | 354° |
| 2026-05-04 13:23 | 37.46934 | 15.06762 | 34 ft | 0 kts | 354° |